Airfield :
LOGIN :

Register | Disclaimer

   EN    FR    IT 

 










Legend :    VFR   Marginal VFR   IFR   Intensive IFR   Very Intensive IFR
Visi :
Ceiling :
>= 8 km
>= 3000ft
5 to 8 km
1000 to 3000 ft
1500m to 5 km
500 to 1000 ft
800 to 1500m
200 to 500 ft
< 800m
< 200 ft
Symbols :   Thunderstorms  Fog  Heavy snow  Heavy precipitations  Wind > 20 kt
SIGMETs :     Misc.  Thunderstorms  Icing  Turbulence  Mountain Waves  Volcanic Ashes






- Airport Elevation : 1276 ft
- IATA code : STR


EDDS - Stuttgart

CURRENT METAR :
  • 232250Z VRB01KT CAVOK 19/14 Q1012

EXPIRED METARs :
  • 232220Z 05002KT CAVOK 19/14 Q1013
  • 232150Z VRB02KT CAVOK 20/14 Q1013
  • 232120Z VRB02KT CAVOK 21/14 Q1013
  • 232050Z 33002KT CAVOK 21/14 Q1013
  • 232020Z 07001KT CAVOK 21/13 Q1013

TAF TAF EDDS
Valid from the 23 at 18:00 until the 24 at 18:00 UTC


231700Z 2318/2418 02003KT CAVOK
PROB30
TEMPO 2404/2414 24015G30KT TSRA SCT030 BKN070CB
BECMG 2409/2411 10005KT
PROB40
TEMPO 2414/2418 24025G40KT 4500 TSRAGR BKN035CB



MET'MAP, your aeronautical weather chart ! - Copyright ORBIFLY December 2007 - Disclaimer

ORBIFLY MET'MAP TEAM :

Programming & Development : Alexandra Zaïnal
Concept & original design : Baudouin d'Aumeries
Assistance for programming : Marc-Olivier Méhu
Technical & hardware support : Manuel Goepfert

Contact : metmap@orbifly.com




SOURCES & CREDITS :

   NOAA